^^
Station Historical Data
Daily Summary for March 9, 2017 Units:  Metric    English   Both
« Previous Day
Next Day »
Daily Weekly Monthly Yearly Custom
  High: Low: Average:
Temperature: 36.1 °C 22.1 °C 31.6 °C
Dew Point: 11.7 °C 4.3 °C 6 °C
Humidity: 51% 16% 21%
Wind Speed: 20.9km/h 0km/h 8.4km/h
Wind Gust: 27.4km/h - -
Wind- - SE
Pressure: 1008.7 hPa 1007 hPa -
Precipitation: 0 mm    
Historical Graphs
 
 
Tabular Data for March 9, 2017
Time Temperature Dew Point Pressure Wind Wind Speed Wind Gust Humidity Rainfall Rate (Hourly) solar Conditions
07:35 22.1 °C 11.5 °C 1008.7 hPa Calm     51% 0 mm 104.0 W/m2
07:40 22.3 °C 11.7 °C 1008.7 hPa Calm     51% 0 mm 128.0 W/m2
12:11 34.5 °C 9 °C 1008.7 hPa East 3.2 km/h 3.2 km/h 21% 0 mm 889.0 W/m2
12:26 35.4 °C 5.8 °C 1008.7 hPa Calm   11.3 km/h 16% 0 mm 898.0 W/m2
12:41 34.9 °C 9.3 °C 1008.4 hPa SSE 13 km/h 13 km/h 21% 0 mm 900.0 W/m2
13:02 35.3 °C 8.2 °C 1008 hPa SE 19.5 km/h 27.4 km/h 19% 0 mm 896.0 W/m2
13:11 35.2 °C 8.1 °C 1008 hPa SE 20.9 km/h 20.9 km/h 19% 0 mm 898.0 W/m2
13:21 35.3 °C 7.4 °C 1008 hPa Calm   12.9 km/h 18% 0 mm 896.0 W/m2
13:32 35.6 °C 7.6 °C 1007.7 hPa SSE 9.7 km/h 16.1 km/h 18% 0 mm 891.0 W/m2
13:40 35.8 °C 7 °C 1007.7 hPa SSE 11.1 km/h 11.3 km/h 17% 0 mm 888.0 W/m2
13:46 35.8 °C 7 °C 1007.3 hPa South 13 km/h 20.9 km/h 17% 0 mm 882.0 W/m2
13:55 36.1 °C 7.2 °C 1007.3 hPa South 19.5 km/h 19.5 km/h 17% 0 mm 877.0 W/m2
20:49 32 °C 4.7 °C 1007 hPa SE 9.7 km/h 14.5 km/h 18% 0 mm 0.0 W/m2
20:55 32.2 °C 4.9 °C 1007 hPa SE 7.9 km/h 12.9 km/h 18% 0 mm 0.0 W/m2
21:11 32 °C 5.5 °C 1007.3 hPa SE 9.7 km/h 14.5 km/h 19% 0 mm 0.0 W/m2
21:18 31.7 °C 5.2 °C 1007.3 hPa SE 9.7 km/h 12.9 km/h 19% 0 mm 0.0 W/m2
21:23 31.5 °C 5.1 °C 1007.3 hPa SE 6.4 km/h 12.9 km/h 19% 0 mm 0.0 W/m2
22:18 30.9 °C 4.6 °C 1007.7 hPa SE 7.9 km/h 11.3 km/h 19% 0 mm 0.0 W/m2
22:23 30.8 °C 4.5 °C 1007.7 hPa SE 9.7 km/h 12.9 km/h 19% 0 mm 0.0 W/m2
22:28 30.8 °C 4.5 °C 1007.7 hPa SE 11.1 km/h 16.1 km/h 19% 0 mm 0.0 W/m2
22:33 30.9 °C 4.6 °C 1007.7 hPa SE 17.7 km/h 17.7 km/h 19% 0 mm 0.0 W/m2
22:38 30.8 °C 4.5 °C 1007.7 hPa SE 9.7 km/h 16.1 km/h 19% 0 mm 0.0 W/m2
22:43 30.7 °C 5.2 °C 1007.7 hPa SE 9.7 km/h 11.3 km/h 20% 0 mm 0.0 W/m2
22:48 30.5 °C 5 °C 1007.7 hPa SE 13 km/h 13 km/h 20% 0 mm 0.0 W/m2
22:53 30.4 °C 4.9 °C 1007.7 hPa SE 6.4 km/h 12.9 km/h 20% 0 mm 0.0 W/m2
22:58 30.3 °C 4.8 °C 1007.7 hPa SE 6.4 km/h 11.3 km/h 20% 0 mm 0.0 W/m2
23:04 30.1 °C 4.7 °C 1007.7 hPa SE 9.7 km/h 12.9 km/h 20% 0 mm 0.0 W/m2
23:09 30.1 °C 4.7 °C 1007.7 hPa SE 9.7 km/h 12.9 km/h 20% 0 mm 0.0 W/m2
23:18 29.9 °C 4.5 °C 1007.7 hPa SE 3.2 km/h 6.4 km/h 20% 0 mm 0.0 W/m2
23:24 29.7 °C 4.3 °C 1007.7 hPa Calm     20% 0 mm 0.0 W/m2
23:29 29.6 °C 4.3 °C 1007.7 hPa Calm     20% 0 mm 0.0 W/m2
23:34 29.6 °C 4.3 °C 1008 hPa Calm     20% 0 mm 0.0 W/m2
23:39 29.6 °C 4.3 °C 1008 hPa SE 7.9 km/h 12.9 km/h 20% 0 mm 0.0 W/m2
23:49 29.6 °C 5 °C 1008 hPa SE 9.7 km/h 9.7 km/h 21% 0 mm 0.0 W/m2
Canyon Roadhouse, Fishriver Canyon, Namibia
Compliments of Weather Underground - 1.75 mb